S.M.U.H. Service Médical d'Urgence par Hélicoptère

Forum de discussion des acteurs du SMUH


    La météo ailleurs que sur Météo France : DANGER

    Partagez

    vanhoute
    Admin
    Admin

    Date d'inscription : 25/10/2009
    Messages : 2118

    La météo ailleurs que sur Météo France : DANGER

    Message  vanhoute le Mer 13 Juil 2011 - 7:05

    Un message pour vous faire part d'un bug important que j'ai découvert hier soir...

    Publication du TAF long de Dijon à 17h Z hier :
    TAF LONG: LFSD 121700Z 1218/1318 25010G25KT 9999 TSRA BKN050CB TEMPO
    1218/1318 2000 TSRAGR BKN006=

    Le même TAF sur Met'Map et sur l'application météo aéro de mon smartphone :
    TAF LONG: LFSD 121700Z 1218/1318 25010G25KT 9999 TSRA BKN050CB TEMPO
    1218/1318 2000 BKN006

    Il manque une information capitale d'alerte météo...

    Je ne sais pas ce qu'est devenu le morceau manquant du TAF long entre Météo France et le service où doivent se fournir les logiciels externes (logiciels américains...NOAA ???).

    En tous cas, méfiance vis à vis de ces données car dans le cas présent, l'information manquante était cruciale.


    _________________________________________________
    Administrateur et Webmaster smuh.fr

    copter
    Membre suractif
    Membre suractif

    Date d'inscription : 01/11/2009
    Messages : 1301

    Re: La météo ailleurs que sur Météo France : DANGER

    Message  copter le Mer 13 Juil 2011 - 12:02

    Merci pour cette information et alerte.

      La date/heure actuelle est Mer 7 Déc 2016 - 16:21